sensor_id;sensor_type;location;lat;lon;timestamp;temperature;humidity
27707;DHT22;36332;51.384;0.040;2023-05-16T00:01:13;8.30;99.90
27707;DHT22;36332;51.384;0.040;2023-05-16T00:03:40;8.30;99.90
27707;DHT22;36332;51.384;0.040;2023-05-16T00:06:09;8.30;99.90
27707;DHT22;36332;51.384;0.040;2023-05-16T00:08:37;8.30;99.90
27707;DHT22;36332;51.384;0.040;2023-05-16T00:11:05;8.40;99.90
27707;DHT22;36332;51.384;0.040;2023-05-16T00:13:33;8.40;99.90
27707;DHT22;36332;51.384;0.040;2023-05-16T00:16:01;8.40;99.90
27707;DHT22;36332;51.384;0.040;2023-05-16T00:18:29;8.40;99.90
27707;DHT22;36332;51.384;0.040;2023-05-16T00:20:56;8.60;99.90
27707;DHT22;36332;51.384;0.040;2023-05-16T00:23:24;8.40;99.90
27707;DHT22;36332;51.384;0.040;2023-05-16T00:25:52;8.50;99.90
27707;DHT22;36332;51.384;0.040;2023-05-16T00:28:19;8.50;99.90
27707;DHT22;36332;51.384;0.040;2023-05-16T00:30:47;8.50;99.90
27707;DHT22;36332;51.384;0.040;2023-05-16T00:33:15;8.50;99.90
27707;DHT22;36332;51.384;0.040;2023-05-16T00:35:43;8.50;99.90
27707;DHT22;36332;51.384;0.040;2023-05-16T00:38:10;8.40;99.90
27707;DHT22;36332;51.384;0.040;2023-05-16T00:40:39;8.50;99.90
27707;DHT22;36332;51.384;0.040;2023-05-16T00:43:09;8.40;99.90
27707;DHT22;36332;51.384;0.040;2023-05-16T00:45:37;8.50;99.90
27707;DHT22;36332;51.384;0.040;2023-05-16T00:48:05;8.40;99.90
27707;DHT22;36332;51.384;0.040;2023-05-16T00:50:33;8.40;99.90
27707;DHT22;36332;51.384;0.040;2023-05-16T00:53:01;8.40;99.90
27707;DHT22;36332;51.384;0.040;2023-05-16T00:55:30;8.40;99.90
27707;DHT22;36332;51.384;0.040;2023-05-16T00:58:00;8.40;99.90
27707;DHT22;36332;51.384;0.040;2023-05-16T01:00:29;8.40;99.90
27707;DHT22;36332;51.384;0.040;2023-05-16T01:02:57;8.40;99.90
27707;DHT22;36332;51.384;0.040;2023-05-16T01:05:27;8.40;99.90
27707;DHT22;36332;51.384;0.040;2023-05-16T01:07:56;8.50;99.90
27707;DHT22;36332;51.384;0.040;2023-05-16T01:10:24;8.60;99.90
27707;DHT22;36332;51.384;0.040;2023-05-16T01:13:10;8.70;99.90
27707;DHT22;36332;51.384;0.040;2023-05-16T01:15:47;8.80;99.90
27707;DHT22;36332;51.384;0.040;2023-05-16T01:18:41;8.90;99.90
27707;DHT22;36332;51.384;0.040;2023-05-16T01:21:15;9.00;99.90
27707;DHT22;36332;51.384;0.040;2023-05-16T01:24:49;9.00;99.90
27707;DHT22;36332;51.384;0.040;2023-05-16T01:26:44;9.10;99.90
27707;DHT22;36332;51.384;0.040;2023-05-16T01:29:12;9.10;99.90
27707;DHT22;36332;51.384;0.040;2023-05-16T01:31:41;9.20;99.90
27707;DHT22;36332;51.384;0.040;2023-05-16T01:34:09;9.20;99.90
27707;DHT22;36332;51.384;0.040;2023-05-16T01:36:56;9.10;99.90
27707;DHT22;36332;51.384;0.040;2023-05-16T01:39:35;9.00;99.90
27707;DHT22;36332;51.384;0.040;2023-05-16T01:42:09;8.90;99.90
27707;DHT22;36332;51.384;0.040;2023-05-16T01:45:02;8.90;99.90
27707;DHT22;36332;51.384;0.040;2023-05-16T01:47:35;8.80;99.90
27707;DHT22;36332;51.384;0.040;2023-05-16T01:53:02;8.70;99.90
27707;DHT22;36332;51.384;0.040;2023-05-16T01:58:11;8.60;99.90
27707;DHT22;36332;51.384;0.040;2023-05-16T02:00:40;8.50;99.90
27707;DHT22;36332;51.384;0.040;2023-05-16T02:03:08;8.50;99.90
27707;DHT22;36332;51.384;0.040;2023-05-16T02:10:32;8.80;99.90
27707;DHT22;36332;51.384;0.040;2023-05-16T02:12:59;8.60;99.90
27707;DHT22;36332;51.384;0.040;2023-05-16T02:15:28;8.60;99.90
27707;DHT22;36332;51.384;0.040;2023-05-16T02:17:56;8.70;99.90
27707;DHT22;36332;51.384;0.040;2023-05-16T02:20:25;8.60;99.90
27707;DHT22;36332;51.384;0.040;2023-05-16T02:22:53;8.60;99.90
27707;DHT22;36332;51.384;0.040;2023-05-16T02:25:21;8.50;99.90
27707;DHT22;36332;51.384;0.040;2023-05-16T02:27:49;8.50;99.90
27707;DHT22;36332;51.384;0.040;2023-05-16T02:30:16;8.70;99.90
27707;DHT22;36332;51.384;0.040;2023-05-16T02:32:44;8.40;99.90
27707;DHT22;36332;51.384;0.040;2023-05-16T02:35:12;8.30;99.90
27707;DHT22;36332;51.384;0.040;2023-05-16T02:37:40;8.30;99.90
27707;DHT22;36332;51.384;0.040;2023-05-16T02:40:09;8.30;99.90
27707;DHT22;36332;51.384;0.040;2023-05-16T02:42:37;8.20;99.90
27707;DHT22;36332;51.384;0.040;2023-05-16T02:45:05;8.40;99.90
27707;DHT22;36332;51.384;0.040;2023-05-16T02:47:32;8.10;99.90
27707;DHT22;36332;51.384;0.040;2023-05-16T02:50:01;8.20;99.90
27707;DHT22;36332;51.384;0.040;2023-05-16T02:52:29;8.00;99.90
27707;DHT22;36332;51.384;0.040;2023-05-16T02:54:56;7.70;99.90
27707;DHT22;36332;51.384;0.040;2023-05-16T02:57:44;7.90;99.90
27707;DHT22;36332;51.384;0.040;2023-05-16T03:00:13;7.80;99.90
27707;DHT22;36332;51.384;0.040;2023-05-16T03:02:44;7.90;99.90
27707;DHT22;36332;51.384;0.040;2023-05-16T03:05:12;7.90;99.90
27707;DHT22;36332;51.384;0.040;2023-05-16T03:07:40;7.50;99.90
27707;DHT22;36332;51.384;0.040;2023-05-16T03:10:08;7.90;99.90
27707;DHT22;36332;51.384;0.040;2023-05-16T03:12:35;7.80;99.90
27707;DHT22;36332;51.384;0.040;2023-05-16T03:15:03;7.70;99.90
27707;DHT22;36332;51.384;0.040;2023-05-16T03:17:31;7.70;99.90
27707;DHT22;36332;51.384;0.040;2023-05-16T03:19:59;7.70;99.90
27707;DHT22;36332;51.384;0.040;2023-05-16T03:22:27;7.70;99.90
27707;DHT22;36332;51.384;0.040;2023-05-16T03:24:54;7.70;99.90
27707;DHT22;36332;51.384;0.040;2023-05-16T03:27:22;7.70;99.90
27707;DHT22;36332;51.384;0.040;2023-05-16T03:29:50;7.70;99.90
27707;DHT22;36332;51.384;0.040;2023-05-16T03:32:18;7.60;99.90
27707;DHT22;36332;51.384;0.040;2023-05-16T03:34:46;7.60;99.90
27707;DHT22;36332;51.384;0.040;2023-05-16T03:37:13;7.90;99.90
27707;DHT22;36332;51.384;0.040;2023-05-16T03:39:42;7.50;99.90
27707;DHT22;36332;51.384;0.040;2023-05-16T03:42:10;7.50;99.90
27707;DHT22;36332;51.384;0.040;2023-05-16T03:44:37;7.40;99.90
27707;DHT22;36332;51.384;0.040;2023-05-16T03:47:05;7.40;99.90
27707;DHT22;36332;51.384;0.040;2023-05-16T03:49:33;7.80;99.90
27707;DHT22;36332;51.384;0.040;2023-05-16T03:52:00;7.00;99.90
27707;DHT22;36332;51.384;0.040;2023-05-16T03:54:28;7.30;99.90
27707;DHT22;36332;51.384;0.040;2023-05-16T03:56:56;7.10;99.90
27707;DHT22;36332;51.384;0.040;2023-05-16T03:59:23;7.50;99.90
27707;DHT22;36332;51.384;0.040;2023-05-16T04:01:51;7.50;99.90
27707;DHT22;36332;51.384;0.040;2023-05-16T04:04:18;7.20;99.90
27707;DHT22;36332;51.384;0.040;2023-05-16T04:06:47;7.20;99.90
27707;DHT22;36332;51.384;0.040;2023-05-16T04:09:14;7.00;99.90
27707;DHT22;36332;51.384;0.040;2023-05-16T04:11:42;7.00;99.90
27707;DHT22;36332;51.384;0.040;2023-05-16T04:14:10;7.10;99.90
27707;DHT22;36332;51.384;0.040;2023-05-16T04:16:37;7.00;99.90
27707;DHT22;36332;51.384;0.040;2023-05-16T04:19:06;6.90;99.90
27707;DHT22;36332;51.384;0.040;2023-05-16T04:21:34;7.40;99.90
27707;DHT22;36332;51.384;0.040;2023-05-16T04:24:02;7.00;99.90
27707;DHT22;36332;51.384;0.040;2023-05-16T04:26:30;7.10;99.90
27707;DHT22;36332;51.384;0.040;2023-05-16T04:28:58;7.10;99.90
27707;DHT22;36332;51.384;0.040;2023-05-16T04:31:26;7.10;99.90
27707;DHT22;36332;51.384;0.040;2023-05-16T04:33:54;7.10;99.90
27707;DHT22;36332;51.384;0.040;2023-05-16T04:36:22;6.60;99.90
27707;DHT22;36332;51.384;0.040;2023-05-16T04:38:50;7.10;99.90
27707;DHT22;36332;51.384;0.040;2023-05-16T04:41:18;7.10;99.90
27707;DHT22;36332;51.384;0.040;2023-05-16T04:43:46;7.40;99.90
27707;DHT22;36332;51.384;0.040;2023-05-16T04:46:13;7.10;99.90
27707;DHT22;36332;51.384;0.040;2023-05-16T04:48:44;6.90;99.90
27707;DHT22;36332;51.384;0.040;2023-05-16T04:51:11;7.20;99.90
27707;DHT22;36332;51.384;0.040;2023-05-16T04:53:39;6.70;99.90
27707;DHT22;36332;51.384;0.040;2023-05-16T04:56:07;7.20;99.90
27707;DHT22;36332;51.384;0.040;2023-05-16T04:58:34;7.40;99.90
27707;DHT22;36332;51.384;0.040;2023-05-16T05:01:02;7.40;99.90
27707;DHT22;36332;51.384;0.040;2023-05-16T05:03:30;7.50;99.90
27707;DHT22;36332;51.384;0.040;2023-05-16T05:05:58;7.60;99.90
27707;DHT22;36332;51.384;0.040;2023-05-16T05:08:26;7.70;99.90
27707;DHT22;36332;51.384;0.040;2023-05-16T05:10:55;8.10;99.90
27707;DHT22;36332;51.384;0.040;2023-05-16T05:13:22;7.90;99.90
27707;DHT22;36332;51.384;0.040;2023-05-16T05:15:50;7.90;99.90
27707;DHT22;36332;51.384;0.040;2023-05-16T05:18:18;8.00;99.90
27707;DHT22;36332;51.384;0.040;2023-05-16T05:20:46;9.20;99.90
27707;DHT22;36332;51.384;0.040;2023-05-16T05:23:14;8.20;99.90
27707;DHT22;36332;51.384;0.040;2023-05-16T05:25:42;8.30;99.90
27707;DHT22;36332;51.384;0.040;2023-05-16T05:28:10;8.40;99.90
27707;DHT22;36332;51.384;0.040;2023-05-16T05:30:38;8.50;99.90
27707;DHT22;36332;51.384;0.040;2023-05-16T05:33:15;8.60;99.90
27707;DHT22;36332;51.384;0.040;2023-05-16T05:35:42;8.70;99.90
27707;DHT22;36332;51.384;0.040;2023-05-16T05:38:10;8.80;99.90
27707;DHT22;36332;51.384;0.040;2023-05-16T05:40:38;9.10;99.90
27707;DHT22;36332;51.384;0.040;2023-05-16T05:43:05;9.10;99.90
27707;DHT22;36332;51.384;0.040;2023-05-16T05:45:33;9.10;99.90
27707;DHT22;36332;51.384;0.040;2023-05-16T05:48:01;9.40;99.90
27707;DHT22;36332;51.384;0.040;2023-05-16T05:50:28;9.20;99.90
27707;DHT22;36332;51.384;0.040;2023-05-16T05:52:56;9.60;99.90
27707;DHT22;36332;51.384;0.040;2023-05-16T05:55:24;9.50;99.90
27707;DHT22;36332;51.384;0.040;2023-05-16T05:57:52;9.70;99.90
27707;DHT22;36332;51.384;0.040;2023-05-16T06:00:20;9.40;99.90
27707;DHT22;36332;51.384;0.040;2023-05-16T06:02:48;9.50;99.90
27707;DHT22;36332;51.384;0.040;2023-05-16T06:05:16;9.60;99.90
27707;DHT22;36332;51.384;0.040;2023-05-16T06:07:44;9.60;99.90
27707;DHT22;36332;51.384;0.040;2023-05-16T06:10:11;9.70;99.90
27707;DHT22;36332;51.384;0.040;2023-05-16T06:12:38;9.60;99.90
27707;DHT22;36332;51.384;0.040;2023-05-16T06:15:07;9.80;99.90
27707;DHT22;36332;51.384;0.040;2023-05-16T06:17:35;9.80;99.90
27707;DHT22;36332;51.384;0.040;2023-05-16T06:20:02;9.90;99.90
27707;DHT22;36332;51.384;0.040;2023-05-16T06:22:31;10.00;99.90
27707;DHT22;36332;51.384;0.040;2023-05-16T06:24:58;10.00;99.90
27707;DHT22;36332;51.384;0.040;2023-05-16T06:27:26;10.10;99.90
27707;DHT22;36332;51.384;0.040;2023-05-16T06:29:55;10.10;99.90
27707;DHT22;36332;51.384;0.040;2023-05-16T06:32:22;10.20;99.90
27707;DHT22;36332;51.384;0.040;2023-05-16T06:34:50;9.50;99.90
27707;DHT22;36332;51.384;0.040;2023-05-16T06:37:18;10.60;99.90
27707;DHT22;36332;51.384;0.040;2023-05-16T06:39:45;10.70;99.90
27707;DHT22;36332;51.384;0.040;2023-05-16T06:42:13;10.40;99.90
27707;DHT22;36332;51.384;0.040;2023-05-16T06:44:42;10.60;99.90
27707;DHT22;36332;51.384;0.040;2023-05-16T06:47:09;10.70;99.90
27707;DHT22;36332;51.384;0.040;2023-05-16T06:49:37;10.80;99.90
27707;DHT22;36332;51.384;0.040;2023-05-16T06:52:05;11.00;99.90
27707;DHT22;36332;51.384;0.040;2023-05-16T06:54:33;11.00;99.90
27707;DHT22;36332;51.384;0.040;2023-05-16T06:57:01;11.20;99.90
27707;DHT22;36332;51.384;0.040;2023-05-16T06:59:30;11.80;99.90
27707;DHT22;36332;51.384;0.040;2023-05-16T07:01:59;11.30;99.90
27707;DHT22;36332;51.384;0.040;2023-05-16T07:04:27;11.30;99.90
27707;DHT22;36332;51.384;0.040;2023-05-16T07:06:54;11.50;99.90
27707;DHT22;36332;51.384;0.040;2023-05-16T07:09:22;11.60;99.90
27707;DHT22;36332;51.384;0.040;2023-05-16T07:11:50;11.70;99.90
27707;DHT22;36332;51.384;0.040;2023-05-16T07:14:18;11.80;99.90
27707;DHT22;36332;51.384;0.040;2023-05-16T07:16:49;11.90;99.90
27707;DHT22;36332;51.384;0.040;2023-05-16T07:19:17;12.00;99.90
27707;DHT22;36332;51.384;0.040;2023-05-16T07:21:44;12.40;99.90
27707;DHT22;36332;51.384;0.040;2023-05-16T07:24:12;12.20;99.90
27707;DHT22;36332;51.384;0.040;2023-05-16T07:26:39;12.30;99.90
27707;DHT22;36332;51.384;0.040;2023-05-16T07:29:07;12.50;99.90
27707;DHT22;36332;51.384;0.040;2023-05-16T07:31:35;12.50;99.90
27707;DHT22;36332;51.384;0.040;2023-05-16T07:34:02;12.60;99.90
27707;DHT22;36332;51.384;0.040;2023-05-16T07:36:30;12.70;99.90
27707;DHT22;36332;51.384;0.040;2023-05-16T07:38:57;12.90;99.90
27707;DHT22;36332;51.384;0.040;2023-05-16T07:41:25;12.80;99.90
27707;DHT22;36332;51.384;0.040;2023-05-16T07:43:53;12.90;99.90
27707;DHT22;36332;51.384;0.040;2023-05-16T07:46:21;13.00;99.90
27707;DHT22;36332;51.384;0.040;2023-05-16T07:48:49;13.20;99.90
27707;DHT22;36332;51.384;0.040;2023-05-16T07:51:17;14.20;99.90
27707;DHT22;36332;51.384;0.040;2023-05-16T07:53:45;13.40;99.90
27707;DHT22;36332;51.384;0.040;2023-05-16T07:56:14;13.50;99.90
27707;DHT22;36332;51.384;0.040;2023-05-16T07:58:42;13.50;99.90
27707;DHT22;36332;51.384;0.040;2023-05-16T08:01:10;13.70;99.90
27707;DHT22;36332;51.384;0.040;2023-05-16T08:03:38;13.90;99.90
27707;DHT22;36332;51.384;0.040;2023-05-16T08:06:06;14.60;99.90
27707;DHT22;36332;51.384;0.040;2023-05-16T08:08:33;14.20;99.90
27707;DHT22;36332;51.384;0.040;2023-05-16T08:11:01;14.30;99.90
27707;DHT22;36332;51.384;0.040;2023-05-16T08:13:30;14.40;99.90
27707;DHT22;36332;51.384;0.040;2023-05-16T08:15:58;14.50;99.90
27707;DHT22;36332;51.384;0.040;2023-05-16T08:18:26;14.60;99.90
27707;DHT22;36332;51.384;0.040;2023-05-16T08:20:53;14.80;99.90
27707;DHT22;36332;51.384;0.040;2023-05-16T08:28:17;15.00;99.90
27707;DHT22;36332;51.384;0.040;2023-05-16T08:30:45;15.00;99.90
27707;DHT22;36332;51.384;0.040;2023-05-16T08:33:14;15.00;99.90
27707;DHT22;36332;51.384;0.040;2023-05-16T08:35:43;15.10;99.90
27707;DHT22;36332;51.384;0.040;2023-05-16T08:38:11;15.20;99.90
27707;DHT22;36332;51.384;0.040;2023-05-16T08:40:39;15.20;99.90
27707;DHT22;36332;51.384;0.040;2023-05-16T08:43:07;15.20;99.90
27707;DHT22;36332;51.384;0.040;2023-05-16T08:45:35;15.30;99.90
27707;DHT22;36332;51.384;0.040;2023-05-16T08:48:04;15.50;99.90
27707;DHT22;36332;51.384;0.040;2023-05-16T08:50:35;15.60;99.90
27707;DHT22;36332;51.384;0.040;2023-05-16T08:53:05;15.70;99.90
27707;DHT22;36332;51.384;0.040;2023-05-16T08:55:35;15.80;99.90
27707;DHT22;36332;51.384;0.040;2023-05-16T08:58:03;15.90;99.90
27707;DHT22;36332;51.384;0.040;2023-05-16T09:00:31;15.90;99.90
27707;DHT22;36332;51.384;0.040;2023-05-16T09:02:59;16.00;99.90
27707;DHT22;36332;51.384;0.040;2023-05-16T09:05:28;16.00;99.90
27707;DHT22;36332;51.384;0.040;2023-05-16T09:07:57;16.20;99.90
27707;DHT22;36332;51.384;0.040;2023-05-16T09:10:24;16.30;99.90
27707;DHT22;36332;51.384;0.040;2023-05-16T09:12:53;16.50;99.90
27707;DHT22;36332;51.384;0.040;2023-05-16T09:15:20;16.60;99.90
27707;DHT22;36332;51.384;0.040;2023-05-16T09:17:48;16.80;99.90
27707;DHT22;36332;51.384;0.040;2023-05-16T09:20:18;16.80;99.90
27707;DHT22;36332;51.384;0.040;2023-05-16T09:22:55;17.00;99.90
27707;DHT22;36332;51.384;0.040;2023-05-16T09:25:29;17.10;99.90
27707;DHT22;36332;51.384;0.040;2023-05-16T09:28:00;17.20;99.90
27707;DHT22;36332;51.384;0.040;2023-05-16T09:30:31;17.00;99.90
27707;DHT22;36332;51.384;0.040;2023-05-16T09:33:01;17.00;99.90
27707;DHT22;36332;51.384;0.040;2023-05-16T09:35:30;17.10;99.90
27707;DHT22;36332;51.384;0.040;2023-05-16T09:38:01;17.20;99.90
27707;DHT22;36332;51.384;0.040;2023-05-16T09:40:29;17.40;99.90
27707;DHT22;36332;51.384;0.040;2023-05-16T09:43:02;17.60;99.90
27707;DHT22;36332;51.384;0.040;2023-05-16T09:45:32;17.90;99.90
27707;DHT22;36332;51.384;0.040;2023-05-16T09:48:05;17.90;99.90
27707;DHT22;36332;51.384;0.040;2023-05-16T09:50:35;17.90;99.90
27707;DHT22;36332;51.384;0.040;2023-05-16T09:53:04;18.00;99.90
27707;DHT22;36332;51.384;0.040;2023-05-16T09:55:32;18.10;99.90
27707;DHT22;36332;51.384;0.040;2023-05-16T09:58:00;18.30;99.90
27707;DHT22;36332;51.384;0.040;2023-05-16T10:00:29;18.40;99.90
27707;DHT22;36332;51.384;0.040;2023-05-16T10:05:31;18.90;99.90
27707;DHT22;36332;51.384;0.040;2023-05-16T10:08:01;18.90;99.90
27707;DHT22;36332;51.384;0.040;2023-05-16T10:10:30;18.90;99.90
27707;DHT22;36332;51.384;0.040;2023-05-16T10:13:02;18.80;99.90
27707;DHT22;36332;51.384;0.040;2023-05-16T10:15:36;18.60;99.90
27707;DHT22;36332;51.384;0.040;2023-05-16T10:18:06;18.30;99.90
27707;DHT22;36332;51.384;0.040;2023-05-16T10:20:43;18.20;99.90
27707;DHT22;36332;51.384;0.040;2023-05-16T10:23:18;18.20;99.90
27707;DHT22;36332;51.384;0.040;2023-05-16T10:25:48;18.50;99.90
27707;DHT22;36332;51.384;0.040;2023-05-16T10:28:16;18.70;99.90
27707;DHT22;36332;51.384;0.040;2023-05-16T10:30:45;19.10;99.90
27707;DHT22;36332;51.384;0.040;2023-05-16T10:33:15;19.60;99.90
27707;DHT22;36332;51.384;0.040;2023-05-16T10:35:44;19.70;99.90
27707;DHT22;36332;51.384;0.040;2023-05-16T10:38:16;19.70;99.90
27707;DHT22;36332;51.384;0.040;2023-05-16T10:40:44;19.80;99.90
27707;DHT22;36332;51.384;0.040;2023-05-16T10:43:28;19.90;99.90
27707;DHT22;36332;51.384;0.040;2023-05-16T10:46:09;20.00;99.90
27707;DHT22;36332;51.384;0.040;2023-05-16T10:48:38;20.20;99.90
27707;DHT22;36332;51.384;0.040;2023-05-16T10:54:09;20.00;99.90
27707;DHT22;36332;51.384;0.040;2023-05-16T10:56:38;19.80;99.90
27707;DHT22;36332;51.384;0.040;2023-05-16T10:59:22;19.60;99.90
27707;DHT22;36332;51.384;0.040;2023-05-16T11:01:52;19.70;99.90
27707;DHT22;36332;51.384;0.040;2023-05-16T11:04:20;19.80;99.90
27707;DHT22;36332;51.384;0.040;2023-05-16T11:06:52;20.10;99.90
27707;DHT22;36332;51.384;0.040;2023-05-16T11:09:25;20.40;99.90
27707;DHT22;36332;51.384;0.040;2023-05-16T11:11:57;20.40;99.90
27707;DHT22;36332;51.384;0.040;2023-05-16T11:14:33;20.30;99.90
27707;DHT22;36332;51.384;0.040;2023-05-16T11:19:56;20.10;99.90
27707;DHT22;36332;51.384;0.040;2023-05-16T11:22:27;20.10;98.90
27707;DHT22;36332;51.384;0.040;2023-05-16T11:24:57;20.20;99.60
27707;DHT22;36332;51.384;0.040;2023-05-16T11:32:41;19.90;98.70
27707;DHT22;36332;51.384;0.040;2023-05-16T11:35:14;19.80;99.40
27707;DHT22;36332;51.384;0.040;2023-05-16T11:37:43;20.00;99.40
27707;DHT22;36332;51.384;0.040;2023-05-16T11:40:12;20.10;99.00
27707;DHT22;36332;51.384;0.040;2023-05-16T11:42:45;20.40;98.20
27707;DHT22;36332;51.384;0.040;2023-05-16T11:45:18;20.60;97.60
27707;DHT22;36332;51.384;0.040;2023-05-16T11:47:47;20.80;96.40
27707;DHT22;36332;51.384;0.040;2023-05-16T11:52:49;21.20;94.80
27707;DHT22;36332;51.384;0.040;2023-05-16T11:55:23;21.40;96.40
27707;DHT22;36332;51.384;0.040;2023-05-16T11:58:08;21.40;94.90
27707;DHT22;36332;51.384;0.040;2023-05-16T12:00:46;21.10;93.30
27707;DHT22;36332;51.384;0.040;2023-05-16T12:03:15;21.00;94.60
27707;DHT22;36332;51.384;0.040;2023-05-16T12:05:52;21.10;95.00
27707;DHT22;36332;51.384;0.040;2023-05-16T12:08:20;21.30;92.60
27707;DHT22;36332;51.384;0.040;2023-05-16T12:10:50;21.50;92.80
27707;DHT22;36332;51.384;0.040;2023-05-16T12:13:20;21.70;92.20
27707;DHT22;36332;51.384;0.040;2023-05-16T12:15:50;21.90;92.60
27707;DHT22;36332;51.384;0.040;2023-05-16T12:18:19;22.00;92.10
27707;DHT22;36332;51.384;0.040;2023-05-16T12:20:48;22.30;91.70
27707;DHT22;36332;51.384;0.040;2023-05-16T12:23:16;22.60;91.20
27707;DHT22;36332;51.384;0.040;2023-05-16T12:25:46;22.80;90.30
27707;DHT22;36332;51.384;0.040;2023-05-16T12:28:14;23.10;95.80
27707;DHT22;36332;51.384;0.040;2023-05-16T12:30:44;23.10;89.50
27707;DHT22;36332;51.384;0.040;2023-05-16T12:33:15;23.30;87.70
27707;DHT22;36332;51.384;0.040;2023-05-16T12:35:44;23.30;86.60
27707;DHT22;36332;51.384;0.040;2023-05-16T12:38:14;23.40;86.60
27707;DHT22;36332;51.384;0.040;2023-05-16T12:40:42;23.60;83.30
27707;DHT22;36332;51.384;0.040;2023-05-16T12:43:19;23.50;82.90
27707;DHT22;36332;51.384;0.040;2023-05-16T12:45:55;23.50;78.20
27707;DHT22;36332;51.384;0.040;2023-05-16T12:48:31;23.60;79.50
27707;DHT22;36332;51.384;0.040;2023-05-16T12:51:12;23.80;80.50
27707;DHT22;36332;51.384;0.040;2023-05-16T12:53:42;24.00;75.00
27707;DHT22;36332;51.384;0.040;2023-05-16T12:56:21;24.20;78.00
27707;DHT22;36332;51.384;0.040;2023-05-16T12:58:50;24.30;76.50
27707;DHT22;36332;51.384;0.040;2023-05-16T13:01:18;24.40;77.00
27707;DHT22;36332;51.384;0.040;2023-05-16T13:03:46;24.50;76.50
27707;DHT22;36332;51.384;0.040;2023-05-16T13:16:06;25.90;70.40
27707;DHT22;36332;51.384;0.040;2023-05-16T13:18:34;25.90;71.70
27707;DHT22;36332;51.384;0.040;2023-05-16T13:21:02;26.10;71.30
27707;DHT22;36332;51.384;0.040;2023-05-16T13:23:31;26.10;70.60
27707;DHT22;36332;51.384;0.040;2023-05-16T13:25:59;25.90;69.00
27707;DHT22;36332;51.384;0.040;2023-05-16T13:28:27;25.90;69.60
27707;DHT22;36332;51.384;0.040;2023-05-16T13:30:54;26.00;68.50
27707;DHT22;36332;51.384;0.040;2023-05-16T13:33:25;26.20;68.20
27707;DHT22;36332;51.384;0.040;2023-05-16T13:35:53;26.40;67.40
27707;DHT22;36332;51.384;0.040;2023-05-16T13:38:21;26.60;67.00
27707;DHT22;36332;51.384;0.040;2023-05-16T13:40:49;27.00;66.60
27707;DHT22;36332;51.384;0.040;2023-05-16T13:43:17;27.00;65.80
27707;DHT22;36332;51.384;0.040;2023-05-16T13:45:45;27.10;66.30
27707;DHT22;36332;51.384;0.040;2023-05-16T13:48:13;26.80;65.30
27707;DHT22;36332;51.384;0.040;2023-05-16T13:50:40;26.50;65.00
27707;DHT22;36332;51.384;0.040;2023-05-16T13:53:10;26.10;65.10
27707;DHT22;36332;51.384;0.040;2023-05-16T13:55:38;26.50;65.50
27707;DHT22;36332;51.384;0.040;2023-05-16T13:58:06;26.90;64.80
27707;DHT22;36332;51.384;0.040;2023-05-16T14:00:33;27.40;60.30
27707;DHT22;36332;51.384;0.040;2023-05-16T14:03:16;27.50;62.30
27707;DHT22;36332;51.384;0.040;2023-05-16T14:05:44;28.00;61.10
27707;DHT22;36332;51.384;0.040;2023-05-16T14:08:12;28.00;58.50
27707;DHT22;36332;51.384;0.040;2023-05-16T14:10:40;28.00;59.20
27707;DHT22;36332;51.384;0.040;2023-05-16T14:13:08;28.00;59.70
27707;DHT22;36332;51.384;0.040;2023-05-16T14:15:35;28.00;59.60
27707;DHT22;36332;51.384;0.040;2023-05-16T14:18:03;27.70;59.40
27707;DHT22;36332;51.384;0.040;2023-05-16T14:20:31;27.20;59.00
27707;DHT22;36332;51.384;0.040;2023-05-16T14:22:59;26.90;59.30
27707;DHT22;36332;51.384;0.040;2023-05-16T14:25:27;26.60;59.70
27707;DHT22;36332;51.384;0.040;2023-05-16T14:27:55;26.80;60.60
27707;DHT22;36332;51.384;0.040;2023-05-16T14:30:23;27.10;60.50
27707;DHT22;36332;51.384;0.040;2023-05-16T14:32:50;27.30;59.80
27707;DHT22;36332;51.384;0.040;2023-05-16T14:35:19;27.30;60.00
27707;DHT22;36332;51.384;0.040;2023-05-16T14:37:46;27.20;59.90
27707;DHT22;36332;51.384;0.040;2023-05-16T14:40:14;27.00;59.70
27707;DHT22;36332;51.384;0.040;2023-05-16T14:42:42;27.20;59.10
27707;DHT22;36332;51.384;0.040;2023-05-16T14:45:09;27.20;59.90
27707;DHT22;36332;51.384;0.040;2023-05-16T14:47:37;27.20;59.10
27707;DHT22;36332;51.384;0.040;2023-05-16T14:50:06;26.90;59.00
27707;DHT22;36332;51.384;0.040;2023-05-16T14:52:36;26.60;58.50
27707;DHT22;36332;51.384;0.040;2023-05-16T14:55:03;26.60;59.70
27707;DHT22;36332;51.384;0.040;2023-05-16T14:57:32;26.60;60.00
27707;DHT22;36332;51.384;0.040;2023-05-16T15:02:29;25.80;59.90
27707;DHT22;36332;51.384;0.040;2023-05-16T15:04:56;25.60;61.60
27707;DHT22;36332;51.384;0.040;2023-05-16T15:07:24;25.70;62.30
27707;DHT22;36332;51.384;0.040;2023-05-16T15:09:52;25.50;62.30
27707;DHT22;36332;51.384;0.040;2023-05-16T15:12:19;25.20;62.80
27707;DHT22;36332;51.384;0.040;2023-05-16T15:14:47;24.80;63.10
27707;DHT22;36332;51.384;0.040;2023-05-16T15:17:15;24.30;64.10
27707;DHT22;36332;51.384;0.040;2023-05-16T15:19:42;23.90;64.80
27707;DHT22;36332;51.384;0.040;2023-05-16T15:22:10;23.40;65.00
27707;DHT22;36332;51.384;0.040;2023-05-16T15:24:38;23.40;65.90
27707;DHT22;36332;51.384;0.040;2023-05-16T15:27:05;23.60;65.70
27707;DHT22;36332;51.384;0.040;2023-05-16T15:29:36;23.70;65.40
27707;DHT22;36332;51.384;0.040;2023-05-16T15:32:04;23.50;66.10
27707;DHT22;36332;51.384;0.040;2023-05-16T15:34:34;23.20;66.80
27707;DHT22;36332;51.384;0.040;2023-05-16T15:37:01;22.90;67.70
27707;DHT22;36332;51.384;0.040;2023-05-16T15:39:30;22.50;68.60
27707;DHT22;36332;51.384;0.040;2023-05-16T15:41:57;22.20;69.30
27707;DHT22;36332;51.384;0.040;2023-05-16T15:44:37;21.90;70.00
27707;DHT22;36332;51.384;0.040;2023-05-16T15:47:06;21.80;70.70
27707;DHT22;36332;51.384;0.040;2023-05-16T15:49:34;21.70;71.10
27707;DHT22;36332;51.384;0.040;2023-05-16T15:52:02;21.50;71.60
27707;DHT22;36332;51.384;0.040;2023-05-16T15:54:29;21.20;72.70
27707;DHT22;36332;51.384;0.040;2023-05-16T15:56:57;20.80;73.70
27707;DHT22;36332;51.384;0.040;2023-05-16T15:59:26;20.20;76.70
27707;DHT22;36332;51.384;0.040;2023-05-16T16:01:54;20.30;76.70
27707;DHT22;36332;51.384;0.040;2023-05-16T16:04:21;20.10;77.80
27707;DHT22;36332;51.384;0.040;2023-05-16T16:06:50;19.90;78.20
27707;DHT22;36332;51.384;0.040;2023-05-16T16:09:17;19.70;78.60
27707;DHT22;36332;51.384;0.040;2023-05-16T16:11:45;19.60;79.40
27707;DHT22;36332;51.384;0.040;2023-05-16T16:14:12;19.50;79.70
27707;DHT22;36332;51.384;0.040;2023-05-16T16:16:40;19.60;80.00
27707;DHT22;36332;51.384;0.040;2023-05-16T16:19:08;19.60;80.40
27707;DHT22;36332;51.384;0.040;2023-05-16T16:21:36;19.70;79.90
27707;DHT22;36332;51.384;0.040;2023-05-16T16:24:04;19.60;80.80
27707;DHT22;36332;51.384;0.040;2023-05-16T16:26:31;19.60;81.10
27707;DHT22;36332;51.384;0.040;2023-05-16T16:28:59;19.60;81.60
27707;DHT22;36332;51.384;0.040;2023-05-16T16:31:27;19.50;81.70
27707;DHT22;36332;51.384;0.040;2023-05-16T16:33:54;19.50;82.10